createdAt,value
2018-02-21T00:00:48.588Z,74.00
2018-02-21T00:03:17.728Z,79.83
2018-02-21T00:05:46.078Z,76.63
2018-02-21T00:08:14.426Z,73.83
2018-02-21T00:10:42.806Z,76.67
2018-02-21T00:13:11.330Z,69.43
2018-02-21T00:15:39.655Z,71.50
2018-02-21T00:18:08.005Z,73.47
2018-02-21T00:20:37.936Z,66.93
2018-02-21T00:23:06.276Z,66.47
2018-02-21T00:25:34.848Z,70.53
2018-02-21T00:28:03.256Z,76.67
2018-02-21T00:30:31.608Z,77.33
2018-02-21T00:33:00.078Z,73.53
2018-02-21T00:35:29.167Z,72.43
2018-02-21T00:37:58.299Z,68.70
2018-02-21T00:40:26.898Z,77.60
2018-02-21T00:42:55.221Z,68.60
2018-02-21T00:45:23.574Z,78.37
2018-02-21T00:47:52.015Z,73.03
2018-02-21T00:50:21.004Z,71.13
2018-02-21T00:52:49.344Z,68.73
2018-02-21T00:55:17.729Z,65.50
2018-02-21T00:57:46.841Z,76.03
2018-02-21T01:00:15.992Z,69.23
2018-02-21T01:02:44.337Z,62.50
2018-02-21T01:05:12.680Z,71.87
2018-02-21T01:07:41.829Z,69.10
2018-02-21T01:10:10.181Z,69.93
2018-02-21T01:12:38.555Z,68.83
2018-02-21T01:15:07.670Z,66.63
2018-02-21T01:17:36.008Z,70.27
2018-02-21T01:20:04.359Z,70.17
2018-02-21T01:22:32.712Z,72.67
2018-02-21T01:25:01.091Z,70.30
2018-02-21T01:27:29.529Z,66.20
2018-02-21T01:29:58.653Z,69.17
2018-02-21T01:32:27.071Z,68.53
2018-02-21T01:34:55.426Z,65.07
2018-02-21T01:37:23.780Z,71.77
2018-02-21T01:39:52.144Z,63.47
2018-02-21T01:42:20.498Z,62.33
2018-02-21T01:44:48.881Z,64.13
2018-02-21T01:47:17.220Z,68.10
2018-02-21T01:49:45.564Z,63.80
2018-02-21T01:52:14.692Z,61.50
2018-02-21T01:54:43.072Z,64.03
2018-02-21T01:57:11.426Z,59.87
2018-02-21T01:59:40.551Z,67.07
2018-02-21T02:02:08.896Z,65.50
2018-02-21T02:04:38.042Z,73.47
2018-02-21T02:07:06.373Z,61.13
2018-02-21T02:09:35.489Z,67.50
2018-02-21T02:12:03.842Z,66.37
2018-02-21T02:14:32.957Z,68.03
2018-02-21T02:17:01.363Z,62.70
2018-02-21T02:19:29.699Z,64.30
2018-02-21T02:21:58.872Z,65.87
2018-02-21T02:24:27.221Z,67.13
2018-02-21T02:26:56.280Z,68.67
2018-02-21T02:29:25.392Z,75.27
2018-02-21T02:31:53.800Z,68.83
2018-02-21T02:34:22.131Z,63.00
2018-02-21T02:36:51.107Z,65.07
2018-02-21T02:42:21.413Z,78.00
2018-02-21T02:44:49.880Z,71.20
2018-02-21T02:47:18.301Z,63.07
2018-02-21T02:49:46.736Z,67.47
2018-02-21T02:52:15.703Z,66.43
2018-02-21T02:54:44.812Z,65.73
2018-02-21T02:57:13.174Z,61.13
2018-02-21T02:59:41.510Z,66.40
2018-02-21T03:02:09.963Z,62.13
2018-02-21T03:04:38.325Z,69.13
2018-02-21T03:07:07.432Z,66.77
2018-02-21T03:09:35.839Z,72.23
2018-02-21T03:12:04.213Z,66.87
2018-02-21T03:14:32.600Z,67.87
2018-02-21T03:17:00.948Z,64.37
2018-02-21T03:19:29.894Z,73.47
2018-02-21T03:21:58.292Z,67.93
2018-02-21T03:24:26.632Z,66.53
2018-02-21T03:26:55.991Z,73.50
2018-02-21T03:29:25.102Z,63.17
2018-02-21T03:31:53.511Z,60.70
2018-02-21T03:34:21.848Z,59.27
2018-02-21T03:36:50.968Z,58.03
2018-02-21T03:39:19.342Z,67.07
2018-02-21T03:41:47.741Z,62.30
2018-02-21T03:44:16.096Z,65.60
2018-02-21T03:46:44.474Z,66.07
2018-02-21T03:49:12.835Z,60.10
2018-02-21T03:51:41.947Z,62.97
2018-02-21T03:54:10.360Z,60.30
2018-02-21T03:56:38.716Z,59.57
2018-02-21T03:59:07.057Z,60.83
2018-02-21T04:01:36.191Z,66.93
2018-02-21T04:04:04.530Z,58.37
2018-02-21T04:06:33.661Z,60.63
2018-02-21T04:09:02.009Z,63.20
2018-02-21T04:11:30.384Z,67.07
2018-02-21T04:13:58.731Z,59.40
2018-02-21T04:16:27.083Z,60.23
2018-02-21T04:19:00.404Z,64.73
2018-02-21T04:21:28.740Z,62.43
2018-02-21T04:23:57.091Z,61.40
2018-02-21T04:26:25.440Z,63.97
2018-02-21T04:28:53.795Z,57.27
2018-02-21T04:31:22.152Z,62.50
2018-02-21T04:33:51.372Z,55.60
2018-02-21T04:36:19.731Z,61.70
2018-02-21T04:38:48.072Z,64.50
2018-02-21T04:41:16.419Z,63.70
2018-02-21T04:43:45.305Z,59.77
2018-02-21T04:46:13.657Z,66.50
2018-02-21T04:48:42.004Z,60.23
2018-02-21T04:51:10.380Z,65.23
2018-02-21T04:53:38.727Z,61.63
2018-02-21T04:56:13.159Z,57.23
2018-02-21T04:58:58.158Z,58.90
2018-02-21T05:01:27.604Z,56.90
2018-02-21T05:03:55.957Z,66.63
2018-02-21T05:06:24.305Z,61.63
2018-02-21T05:08:53.468Z,60.37
2018-02-21T05:11:21.816Z,56.13
2018-02-21T05:13:50.185Z,63.53
2018-02-21T05:16:19.303Z,54.63
2018-02-21T05:18:47.653Z,55.43
2018-02-21T05:21:16.045Z,56.07
2018-02-21T05:23:45.153Z,62.93
2018-02-21T05:26:13.532Z,60.70
2018-02-21T05:28:41.875Z,60.80
2018-02-21T05:31:10.207Z,59.67
2018-02-21T05:33:38.579Z,60.10
2018-02-21T05:36:06.933Z,63.93
2018-02-21T05:38:35.343Z,54.37
2018-02-21T05:41:03.689Z,57.03
2018-02-21T05:43:32.820Z,46.90
2018-02-21T05:46:01.303Z,56.53
2018-02-21T05:48:29.677Z,58.57
2018-02-21T05:50:58.070Z,61.97
2018-02-21T05:53:26.412Z,62.57
2018-02-21T05:55:55.588Z,55.33
2018-02-21T05:58:23.923Z,52.00
2018-02-21T06:00:52.392Z,61.40
2018-02-21T06:03:20.741Z,56.10
2018-02-21T06:05:49.856Z,59.17
2018-02-21T06:08:18.330Z,56.63
2018-02-21T06:10:47.440Z,63.90
2018-02-21T06:13:15.832Z,55.10
2018-02-21T06:15:44.208Z,56.20
2018-02-21T06:18:12.563Z,65.97
2018-02-21T06:20:41.700Z,61.40
2018-02-21T06:23:10.072Z,77.80
2018-02-21T06:25:38.443Z,63.90
2018-02-21T06:28:06.792Z,54.97
2018-02-21T06:30:35.957Z,66.33
2018-02-21T06:33:04.360Z,60.47
2018-02-21T06:35:32.837Z,80.70
2018-02-21T06:38:01.318Z,62.13
2018-02-21T06:40:29.829Z,59.27
2018-02-21T06:42:59.103Z,62.57
2018-02-21T06:45:27.605Z,57.07
2018-02-21T06:47:56.772Z,64.40
2018-02-21T06:50:25.208Z,103.33
2018-02-21T06:52:53.592Z,76.90
2018-02-21T06:55:22.584Z,60.70
2018-02-21T06:57:50.960Z,62.07
2018-02-21T07:00:19.341Z,60.47
2018-02-21T07:02:47.685Z,70.20
2018-02-21T07:05:16.808Z,71.87
2018-02-21T07:07:45.157Z,85.40
2018-02-21T07:10:15.004Z,70.47
2018-02-21T07:12:43.343Z,69.53
2018-02-21T07:15:12.137Z,63.67
2018-02-21T07:17:40.481Z,66.27
2018-02-21T07:20:08.832Z,69.40
2018-02-21T07:22:37.189Z,59.40
2018-02-21T07:25:05.528Z,63.77
2018-02-21T07:27:33.872Z,81.20
2018-02-21T07:30:02.221Z,70.17
2018-02-21T07:32:31.353Z,58.20
2018-02-21T07:34:59.762Z,50.67
2018-02-21T07:37:28.208Z,53.10
2018-02-21T07:39:56.556Z,59.80
2018-02-21T07:42:24.914Z,57.03
2018-02-21T07:44:53.264Z,54.23
2018-02-21T07:47:21.613Z,48.03
2018-02-21T07:49:50.089Z,113.70
2018-02-21T07:52:18.428Z,60.97
2018-02-21T07:54:46.772Z,52.70
2018-02-21T07:57:15.145Z,52.10
2018-02-21T07:59:43.582Z,54.53
2018-02-21T08:02:12.703Z,52.17
2018-02-21T08:04:41.052Z,51.13
2018-02-21T08:07:10.189Z,74.07
2018-02-21T08:09:38.682Z,88.60
2018-02-21T08:12:07.038Z,62.63
2018-02-21T08:14:35.428Z,51.90
2018-02-21T08:17:03.785Z,48.90
2018-02-21T08:19:33.021Z,47.60
2018-02-21T08:22:01.363Z,46.83
2018-02-21T08:24:29.733Z,43.50
2018-02-21T08:26:58.872Z,40.93
2018-02-21T08:29:27.298Z,43.97
2018-02-21T08:31:55.652Z,45.60
2018-02-21T08:34:24.005Z,44.93
2018-02-21T08:36:52.363Z,43.67
2018-02-21T08:39:20.754Z,65.50
2018-02-21T08:41:49.129Z,43.23
2018-02-21T08:44:17.484Z,39.77
2018-02-21T08:46:45.816Z,40.10
2018-02-21T08:49:14.282Z,43.93
2018-02-21T08:51:42.624Z,42.37
2018-02-21T08:54:11.728Z,38.23
2018-02-21T08:56:40.831Z,42.97
2018-02-21T08:59:09.533Z,42.40
2018-02-21T09:01:37.911Z,37.23
2018-02-21T09:04:06.258Z,38.73
2018-02-21T09:06:34.645Z,37.90
2018-02-21T09:09:02.936Z,42.23
2018-02-21T09:11:31.289Z,35.03
2018-02-21T09:14:00.417Z,36.47
2018-02-21T09:16:28.802Z,41.47
2018-02-21T09:18:57.137Z,37.53
2018-02-21T09:21:25.668Z,35.67
2018-02-21T09:23:54.040Z,36.00
2018-02-21T09:26:22.397Z,36.23
2018-02-21T09:28:51.502Z,39.27
2018-02-21T09:31:19.924Z,38.63
2018-02-21T09:33:48.290Z,71.13
2018-02-21T09:36:16.817Z,45.77
2018-02-21T09:38:45.247Z,46.10
2018-02-21T09:41:13.581Z,42.03
2018-02-21T09:43:42.716Z,41.43
2018-02-21T09:46:11.100Z,46.07
2018-02-21T09:48:39.436Z,43.47
2018-02-21T09:51:08.888Z,47.13
2018-02-21T09:53:37.233Z,40.57
2018-02-21T09:56:06.342Z,40.20
2018-02-21T09:58:34.742Z,42.80
2018-02-21T10:01:03.112Z,44.63
2018-02-21T10:03:31.492Z,43.33
2018-02-21T10:05:59.862Z,41.20
2018-02-21T10:08:28.228Z,43.43
2018-02-21T10:10:56.585Z,43.53
2018-02-21T10:13:25.099Z,40.17
2018-02-21T10:15:53.498Z,45.90
2018-02-21T10:18:21.852Z,40.20
2018-02-21T10:20:51.060Z,40.07
2018-02-21T10:23:19.391Z,44.77
2018-02-21T10:25:47.778Z,38.20
2018-02-21T10:28:16.204Z,39.03
2018-02-21T10:30:44.549Z,47.97
2018-02-21T10:33:13.663Z,40.27
2018-02-21T10:35:41.999Z,45.40
2018-02-21T10:38:10.441Z,40.07
2018-02-21T10:40:38.977Z,39.60
2018-02-21T10:43:07.349Z,39.93
2018-02-21T10:45:35.699Z,37.80
2018-02-21T10:48:04.053Z,35.67
2018-02-21T10:50:32.392Z,39.63
2018-02-21T10:53:00.822Z,42.23
2018-02-21T10:55:29.206Z,41.03
2018-02-21T10:57:57.774Z,42.67
2018-02-21T11:00:31.688Z,37.97
2018-02-21T11:03:00.082Z,38.20
2018-02-21T11:05:28.437Z,38.83
2018-02-21T11:07:56.763Z,34.87
2018-02-21T11:10:25.212Z,36.17
2018-02-21T11:12:54.183Z,35.70
2018-02-21T11:15:22.568Z,35.07
2018-02-21T11:17:50.985Z,35.57
2018-02-21T11:20:19.303Z,37.77
2018-02-21T11:22:48.446Z,37.73
2018-02-21T11:25:16.767Z,34.70
2018-02-21T11:27:45.137Z,32.23
2018-02-21T11:30:13.505Z,33.27
2018-02-21T11:32:41.851Z,36.23
2018-02-21T11:35:10.224Z,33.57
2018-02-21T11:37:38.609Z,30.30
2018-02-21T11:40:07.000Z,32.90
2018-02-21T11:42:35.320Z,29.03
2018-02-21T11:45:03.744Z,30.13
2018-02-21T11:47:32.132Z,29.70
2018-02-21T11:50:00.471Z,30.30
2018-02-21T11:52:29.579Z,29.13
2018-02-21T11:54:58.692Z,32.00
2018-02-21T11:57:27.065Z,30.67
2018-02-21T11:59:55.648Z,27.70
2018-02-21T12:02:23.992Z,29.20
2018-02-21T12:04:52.382Z,27.07
2018-02-21T12:07:20.699Z,27.27
2018-02-21T12:09:49.072Z,25.23
2018-02-21T12:12:17.425Z,25.27
2018-02-21T12:14:46.554Z,26.70
2018-02-21T12:17:14.928Z,22.90
2018-02-21T12:19:43.420Z,23.67
2018-02-21T12:22:11.762Z,21.03
2018-02-21T12:24:40.900Z,21.60
2018-02-21T12:27:09.339Z,22.87
2018-02-21T12:29:38.457Z,20.23
2018-02-21T12:32:06.836Z,22.87
2018-02-21T12:34:35.166Z,19.50
2018-02-21T12:37:03.516Z,22.90
2018-02-21T12:39:36.505Z,21.07
2018-02-21T12:42:04.861Z,24.23
2018-02-21T12:44:33.240Z,22.13
2018-02-21T12:47:01.704Z,18.80
2018-02-21T12:49:30.088Z,18.37
2018-02-21T12:51:58.440Z,19.53
2018-02-21T12:54:26.873Z,18.47
2018-02-21T12:56:55.237Z,21.17
2018-02-21T12:59:23.598Z,21.10
2018-02-21T13:01:52.724Z,21.07
2018-02-21T13:04:21.116Z,21.23
2018-02-21T13:06:49.584Z,22.47
2018-02-21T13:09:17.920Z,22.03
2018-02-21T13:11:47.929Z,25.67
2018-02-21T13:14:16.367Z,21.73
2018-02-21T13:16:44.953Z,20.37
2018-02-21T13:19:13.297Z,22.63
2018-02-21T13:21:41.627Z,21.30
2018-02-21T13:24:10.008Z,24.10
2018-02-21T13:26:38.960Z,23.83
2018-02-21T13:29:07.301Z,23.50
2018-02-21T13:31:35.726Z,21.60
2018-02-21T13:34:04.125Z,42.30
2018-02-21T13:36:32.467Z,30.77
2018-02-21T13:39:00.826Z,24.33
2018-02-21T13:41:29.368Z,22.77
2018-02-21T13:43:57.701Z,21.20
2018-02-21T13:46:26.803Z,22.20
2018-02-21T13:48:55.157Z,22.87
2018-02-21T13:51:23.492Z,22.00
2018-02-21T13:53:51.858Z,22.90
2018-02-21T13:56:20.208Z,21.17
2018-02-21T13:58:49.339Z,20.17
2018-02-21T14:01:17.692Z,20.37
2018-02-21T14:03:46.789Z,23.20
2018-02-21T14:06:15.164Z,24.90
2018-02-21T14:08:44.401Z,20.73
2018-02-21T14:11:12.745Z,30.47
2018-02-21T14:13:41.241Z,44.33
2018-02-21T14:16:09.733Z,25.47
2018-02-21T14:18:38.080Z,23.57
2018-02-21T14:21:06.429Z,21.67
2018-02-21T14:23:34.780Z,23.47
2018-02-21T14:26:03.269Z,24.60
2018-02-21T14:28:31.653Z,22.40
2018-02-21T14:31:00.012Z,23.77
2018-02-21T14:33:28.373Z,22.93
2018-02-21T14:35:56.736Z,26.23
2018-02-21T14:38:25.165Z,21.27
2018-02-21T14:40:53.503Z,21.63
2018-02-21T14:43:21.857Z,20.63
2018-02-21T14:45:50.193Z,23.27
2018-02-21T14:48:18.536Z,24.27
2018-02-21T14:50:46.899Z,21.17
2018-02-21T14:53:16.328Z,24.77
2018-02-21T14:55:44.661Z,24.33
2018-02-21T14:58:13.015Z,29.20
2018-02-21T15:00:41.354Z,25.70
2018-02-21T15:03:10.473Z,24.73
2018-02-21T15:05:38.814Z,23.50
2018-02-21T15:08:07.187Z,24.50
2018-02-21T15:10:36.360Z,24.60
2018-02-21T15:13:04.709Z,23.83
2018-02-21T15:15:33.070Z,23.97
2018-02-21T15:18:02.173Z,26.53
2018-02-21T15:20:30.550Z,21.73
2018-02-21T15:22:58.892Z,22.23
2018-02-21T15:25:27.418Z,24.30
2018-02-21T15:27:55.740Z,24.93
2018-02-21T15:30:24.087Z,22.20
2018-02-21T15:32:52.442Z,25.30
2018-02-21T15:35:20.838Z,28.70
2018-02-21T15:37:49.164Z,25.53
2018-02-21T15:40:17.498Z,26.13
2018-02-21T15:42:45.897Z,24.17
2018-02-21T15:45:14.301Z,24.77
2018-02-21T15:47:42.606Z,21.90
2018-02-21T15:50:11.004Z,24.47
2018-02-21T15:52:39.341Z,22.87
2018-02-21T15:55:07.693Z,22.77
2018-02-21T15:57:36.023Z,23.53
2018-02-21T16:00:04.372Z,24.67
2018-02-21T16:02:32.821Z,23.47
2018-02-21T16:05:01.299Z,23.40
2018-02-21T16:07:29.640Z,23.30
2018-02-21T16:09:58.773Z,25.60
2018-02-21T16:12:27.115Z,23.80
2018-02-21T16:14:56.216Z,20.07
2018-02-21T16:17:24.586Z,25.23
2018-02-21T16:19:53.732Z,23.40
2018-02-21T16:22:22.048Z,24.40
2018-02-21T16:24:50.416Z,22.37
2018-02-21T16:27:18.743Z,23.47
2018-02-21T16:29:47.471Z,20.17
2018-02-21T16:32:15.809Z,23.73
2018-02-21T16:34:44.141Z,21.90
2018-02-21T16:37:12.599Z,22.40
2018-02-21T16:39:40.968Z,20.90
2018-02-21T16:42:09.349Z,25.57
2018-02-21T16:44:37.794Z,23.07
2018-02-21T16:47:06.899Z,22.53
2018-02-21T16:49:35.250Z,23.33
2018-02-21T16:52:03.725Z,25.33
2018-02-21T16:54:32.111Z,25.30
2018-02-21T16:57:00.538Z,22.03
2018-02-21T16:59:28.885Z,22.20
2018-02-21T17:01:59.818Z,26.20
2018-02-21T17:04:28.946Z,25.37
2018-02-21T17:06:57.351Z,26.33
2018-02-21T17:09:25.700Z,23.47
2018-02-21T17:11:54.124Z,22.63
2018-02-21T17:14:22.542Z,23.03
2018-02-21T17:16:50.935Z,23.73
2018-02-21T17:19:19.289Z,30.60
2018-02-21T17:21:48.486Z,31.67
2018-02-21T17:24:16.936Z,22.23
2018-02-21T17:26:45.271Z,25.63
2018-02-21T17:29:13.615Z,27.97
2018-02-21T17:31:41.959Z,24.63
2018-02-21T17:34:10.316Z,28.83
2018-02-21T17:36:38.701Z,24.73
2018-02-21T17:39:07.101Z,26.23
2018-02-21T17:41:35.498Z,22.63
2018-02-21T17:44:03.878Z,22.33
2018-02-21T17:46:32.188Z,24.67
2018-02-21T17:49:00.539Z,23.60
2018-02-21T17:51:28.970Z,26.37
2018-02-21T17:53:57.824Z,20.37
2018-02-21T17:56:26.951Z,26.23
2018-02-21T17:58:55.364Z,24.77
2018-02-21T18:01:23.839Z,25.03
2018-02-21T18:03:52.189Z,22.80
2018-02-21T18:06:20.592Z,23.83
2018-02-21T18:08:48.924Z,25.30
2018-02-21T18:11:18.036Z,26.43
2018-02-21T18:13:46.393Z,21.23
2018-02-21T18:16:15.516Z,19.03
2018-02-21T18:18:43.919Z,22.27
2018-02-21T18:21:18.034Z,24.97
2018-02-21T18:23:46.522Z,24.87
2018-02-21T18:26:14.933Z,34.90
2018-02-21T18:28:43.273Z,28.13
2018-02-21T18:31:11.623Z,27.70
2018-02-21T18:33:40.015Z,26.67
2018-02-21T18:36:08.402Z,27.70
2018-02-21T18:38:36.778Z,26.63
2018-02-21T18:41:05.155Z,25.00
2018-02-21T18:43:33.500Z,26.43
2018-02-21T18:46:03.344Z,25.80
2018-02-21T18:48:31.792Z,24.20
2018-02-21T18:51:00.902Z,23.30
2018-02-21T18:53:30.264Z,23.20
2018-02-21T18:55:58.723Z,23.77
2018-02-21T18:58:27.080Z,23.30
2018-02-21T19:00:55.998Z,23.53
2018-02-21T19:03:24.377Z,26.20
2018-02-21T19:05:53.887Z,25.13
2018-02-21T19:08:22.365Z,24.00
2018-02-21T19:10:50.962Z,22.70
2018-02-21T19:13:19.309Z,24.90
2018-02-21T19:15:47.680Z,29.77
2018-02-21T19:18:16.956Z,24.63
2018-02-21T19:20:45.396Z,24.40
2018-02-21T19:23:14.069Z,25.10
2018-02-21T19:25:42.394Z,25.43
2018-02-21T19:28:10.822Z,23.23
2018-02-21T19:30:39.162Z,25.63
2018-02-21T19:33:08.202Z,25.73
2018-02-21T19:35:36.683Z,24.57
2018-02-21T19:38:05.044Z,23.57
2018-02-21T19:40:33.806Z,26.10
2018-02-21T19:43:02.291Z,24.13
2018-02-21T19:45:30.942Z,25.17
2018-02-21T19:47:59.597Z,24.47
2018-02-21T19:50:28.675Z,25.50
2018-02-21T19:52:57.109Z,22.83
2018-02-21T19:55:25.460Z,24.17
2018-02-21T19:57:53.825Z,24.10
2018-02-21T20:00:22.177Z,25.77
2018-02-21T20:02:50.552Z,23.00
2018-02-21T20:05:18.920Z,23.47
2018-02-21T20:07:48.061Z,20.90
2018-02-21T20:10:16.669Z,25.77
2018-02-21T20:12:45.030Z,29.83
2018-02-21T20:15:13.402Z,24.40
2018-02-21T20:17:41.763Z,23.87
2018-02-21T20:20:10.194Z,21.87
2018-02-21T20:22:38.582Z,24.00
2018-02-21T20:25:07.065Z,25.70
2018-02-21T20:27:35.545Z,23.67
2018-02-21T20:30:03.940Z,22.60
2018-02-21T20:32:33.201Z,26.27
2018-02-21T20:35:01.557Z,57.60
2018-02-21T20:37:29.913Z,29.90
2018-02-21T20:39:58.411Z,29.80
2018-02-21T20:42:26.792Z,23.67
2018-02-21T20:44:55.437Z,21.70
2018-02-21T20:47:23.815Z,22.53
2018-02-21T20:49:52.265Z,28.10
2018-02-21T20:52:20.717Z,24.97
2018-02-21T20:54:49.210Z,27.87
2018-02-21T20:57:17.722Z,22.77
2018-02-21T20:59:46.169Z,26.73
2018-02-21T21:02:14.534Z,22.67
2018-02-21T21:04:42.925Z,26.23
2018-02-21T21:07:11.271Z,25.80
2018-02-21T21:09:40.414Z,26.43
2018-02-21T21:12:08.775Z,23.87
2018-02-21T21:14:37.132Z,25.63
2018-02-21T21:17:06.260Z,25.63
2018-02-21T21:19:36.091Z,27.10
2018-02-21T21:22:04.456Z,27.77
2018-02-21T21:24:32.885Z,24.83
2018-02-21T21:27:01.350Z,25.27
2018-02-21T21:29:29.794Z,24.97
2018-02-21T21:31:58.292Z,25.23
2018-02-21T21:34:26.657Z,23.93
2018-02-21T21:36:55.045Z,26.63
2018-02-21T21:39:23.421Z,28.20
2018-02-21T21:41:51.805Z,27.43
2018-02-21T21:44:20.169Z,25.63
2018-02-21T21:46:48.521Z,25.97
2018-02-21T21:49:17.651Z,24.93
2018-02-21T21:51:46.059Z,29.83
2018-02-21T21:54:14.700Z,28.80
2018-02-21T21:56:43.102Z,28.77
2018-02-21T21:59:11.453Z,28.70
2018-02-21T22:01:39.835Z,25.30
2018-02-21T22:04:08.237Z,28.37
2018-02-21T22:06:36.576Z,26.07
2018-02-21T22:09:05.692Z,27.13
2018-02-21T22:11:34.089Z,28.33
2018-02-21T22:14:02.605Z,25.67
2018-02-21T22:16:30.968Z,27.73
2018-02-21T22:18:59.347Z,25.43
2018-02-21T22:21:27.725Z,29.23
2018-02-21T22:23:56.365Z,24.33
2018-02-21T22:26:24.783Z,27.67
2018-02-21T22:28:53.144Z,25.63
2018-02-21T22:31:21.679Z,24.80
2018-02-21T22:33:49.989Z,27.23
2018-02-21T22:36:19.106Z,26.97
2018-02-21T22:38:47.487Z,25.10
2018-02-21T22:41:15.850Z,29.00
2018-02-21T22:43:44.408Z,26.73
2018-02-21T22:46:13.541Z,27.73
2018-02-21T22:48:41.966Z,24.00
2018-02-21T22:51:10.428Z,26.40
2018-02-21T22:53:38.772Z,30.00
2018-02-21T22:56:07.881Z,30.33
2018-02-21T22:58:36.230Z,27.07
2018-02-21T23:01:05.363Z,29.47
2018-02-21T23:03:33.715Z,28.07
2018-02-21T23:06:02.119Z,29.43
2018-02-21T23:08:30.483Z,28.70
2018-02-21T23:10:58.849Z,26.07
2018-02-21T23:13:27.207Z,27.93
2018-02-21T23:15:56.320Z,29.27
2018-02-21T23:18:25.543Z,26.90
2018-02-21T23:20:53.938Z,27.63
2018-02-21T23:23:22.621Z,34.53
2018-02-21T23:25:50.965Z,31.93
2018-02-21T23:28:20.072Z,31.53
2018-02-21T23:30:48.543Z,28.83
2018-02-21T23:33:16.896Z,28.33
2018-02-21T23:35:45.253Z,33.50
2018-02-21T23:38:13.772Z,26.83
2018-02-21T23:40:42.197Z,24.90
2018-02-21T23:43:10.605Z,29.30
2018-02-21T23:45:38.941Z,29.53
2018-02-21T23:48:07.302Z,28.13
2018-02-21T23:50:35.648Z,30.90
2018-02-21T23:53:04.055Z,26.07
2018-02-21T23:55:33.154Z,28.30
2018-02-21T23:58:02.389Z,27.27
